Time;durP1;ratioP1;P1;durP2;ratioP2;P2;SDS_P1;SDS_P2;PMS_P1;PMS_P2;Temp;Humidity;BMP_temperature;BMP_pressure;BME280_temperature;BME280_humidity;BME280_pressure;Samples;Min_cycle;Max_cycle;Signal;HPM_P1;HPM_P2
2021/05/13 00:01:47;;;;;;;24.70;14.55;;;;;;;;;;5007169;28;20485;-64
2021/05/13 00:04:13;;;;;;;22.42;12.90;;;;;;;;;;5031467;28;20033;-62
2021/05/13 00:06:39;;;;;;;26.10;14.48;;;;;;;;;;5031467;28;20029;-64
2021/05/13 00:09:06;;;;;;;23.48;13.23;;;;;;;;;;4347988;28;10000785;-64
2021/05/13 00:11:33;;;;;;;25.35;14.00;;;;;;;;;;5028560;28;20018;-63
2021/05/13 00:14:00;;;;;;;23.35;13.30;;;;;;;;;;5027911;28;20371;-64
2021/05/13 00:16:31;;;;;;;26.38;15.20;;;;;;;;;;5030314;28;20429;-64
2021/05/13 00:18:58;;;;;;;25.58;13.07;;;;;;;;;;5028094;28;20124;-64
2021/05/13 00:21:24;;;;;;;24.30;12.88;;;;;;;;;;5029014;28;20022;-64
2021/05/13 00:23:50;;;;;;;27.35;12.32;;;;;;;;;;5030248;28;20110;-64
2021/05/13 00:26:24;;;;;;;27.85;17.90;;;;;;;;;;5029502;28;20041;-65
2021/05/13 00:28:50;;;;;;;26.27;14.40;;;;;;;;;;5029831;28;20200;-63
2021/05/13 00:31:16;;;;;;;24.38;14.05;;;;;;;;;;5030632;28;20034;-64
2021/05/13 00:33:42;;;;;;;26.65;15.18;;;;;;;;;;5033428;28;20051;-64
2021/05/13 00:36:08;;;;;;;28.27;15.73;;;;;;;;;;5036034;28;20100;-64
2021/05/13 00:38:34;;;;;;;27.05;14.57;;;;;;;;;;5034777;28;20482;-64
2021/05/13 00:41:00;;;;;;;26.60;14.02;;;;;;;;;;5034188;28;20022;-64
2021/05/13 00:43:26;;;;;;;27.13;16.42;;;;;;;;;;5034541;28;20120;-64
2021/05/13 00:45:52;;;;;;;23.90;13.52;;;;;;;;;;5035623;28;20495;-60
2021/05/13 00:48:18;;;;;;;24.55;13.52;;;;;;;;;;5035630;28;20025;-65
2021/05/13 00:50:44;;;;;;;23.75;14.13;;;;;;;;;;5033673;28;20072;-63
2021/05/13 00:53:11;;;;;;;28.52;16.55;;;;;;;;;;5034472;28;20033;-64
2021/05/13 00:55:38;;;;;;;31.13;17.23;;;;;;;;;;5035861;28;20030;-63
2021/05/13 00:58:06;;;;;;;30.75;16.67;;;;;;;;;;5035510;28;20496;-64
2021/05/13 01:03:10;;;;;;;27.05;12.93;;;;;;;;;;5035526;28;20112;-63
2021/05/13 01:05:37;;;;;;;24.95;14.23;;;;;;;;;;5035440;28;20485;-63
2021/05/13 01:08:04;;;;;;;25.25;13.15;;;;;;;;;;5035357;28;20018;-63
2021/05/13 01:10:30;;;;;;;21.70;11.65;;;;;;;;;;5033495;28;20025;-63
2021/05/13 01:13:00;;;;;;;23.92;13.73;;;;;;;;;;5035432;28;20025;-64
2021/05/13 01:15:34;;;;;;;25.55;13.63;;;;;;;;;;5034636;28;20057;-63
2021/05/13 01:18:17;;;;;;;25.00;14.13;;;;;;;;;;5064316;22;20490;-62
2021/05/13 01:20:43;;;;;;;24.30;12.85;;;;;;;;;;5074450;28;20033;-65
2021/05/13 01:23:11;;;;;;;23.50;12.02;;;;;;;;;;5073161;28;20025;-65
2021/05/13 01:25:52;;;;;;;23.40;12.77;;;;;;;;;;5073323;28;20027;-65
2021/05/13 01:28:19;;;;;;;23.38;13.18;;;;;;;;;;5073370;28;20093;-65
2021/05/13 01:30:45;;;;;;;24.63;12.25;;;;;;;;;;5073944;28;20200;-65
2021/05/13 01:33:12;;;;;;;24.38;13.85;;;;;;;;;;5074358;28;20452;-64
2021/05/13 01:35:39;;;;;;;24.98;16.20;;;;;;;;;;5074774;28;20054;-64
2021/05/13 01:38:12;;;;;;;29.45;14.50;;;;;;;;;;5073338;28;20025;-64
2021/05/13 01:40:39;;;;;;;27.08;15.55;;;;;;;;;;5072361;28;20035;-64
2021/05/13 01:43:05;;;;;;;25.30;13.85;;;;;;;;;;5074262;28;20506;-64
2021/05/13 01:45:32;;;;;;;25.38;13.98;;;;;;;;;;5072905;28;20635;-63
2021/05/13 01:48:02;;;;;;;27.48;15.32;;;;;;;;;;5073300;28;20048;-64
2021/05/13 01:50:29;;;;;;;28.02;15.60;;;;;;;;;;5073816;28;20016;-64
2021/05/13 01:52:55;;;;;;;31.02;19.08;;;;;;;;;;5074205;28;20404;-63
2021/05/13 01:55:21;;;;;;;26.95;14.32;;;;;;;;;;5073091;28;20085;-63
2021/05/13 01:57:47;;;;;;;26.10;15.80;;;;;;;;;;5073070;28;20035;-64
2021/05/13 02:00:13;;;;;;;27.40;15.93;;;;;;;;;;5072457;28;20427;-64
2021/05/13 02:02:39;;;;;;;24.45;14.73;;;;;;;;;;5074261;28;20373;-64
2021/05/13 02:05:05;;;;;;;26.45;15.25;;;;;;;;;;5073136;28;20029;-64
2021/05/13 02:07:31;;;;;;;26.75;15.07;;;;;;;;;;5072890;28;20031;-64
2021/05/13 02:09:57;;;;;;;28.90;15.32;;;;;;;;;;5072251;28;20111;-64
2021/05/13 02:12:23;;;;;;;29.83;16.60;;;;;;;;;;5074215;28;20025;-64
2021/05/13 02:14:49;;;;;;;28.02;15.30;;;;;;;;;;5072794;28;20043;-65
2021/05/13 02:17:15;;;;;;;26.58;16.30;;;;;;;;;;5072850;28;20443;-64
2021/05/13 02:19:41;;;;;;;29.83;16.58;;;;;;;;;;5071962;28;20035;-64
2021/05/13 02:22:07;;;;;;;33.42;21.73;;;;;;;;;;5072850;28;20059;-65
2021/05/13 02:24:33;;;;;;;38.53;23.55;;;;;;;;;;5073746;28;20029;-64
2021/05/13 02:26:59;;;;;;;29.17;17.23;;;;;;;;;;5072676;28;20031;-65
2021/05/13 02:29:25;;;;;;;30.65;19.35;;;;;;;;;;5073126;28;20159;-65
2021/05/13 02:31:51;;;;;;;30.90;20.35;;;;;;;;;;5073734;28;20020;-64
2021/05/13 02:34:17;;;;;;;32.47;19.25;;;;;;;;;;5072634;28;20196;-65
2021/05/13 02:36:43;;;;;;;29.83;17.38;;;;;;;;;;5073618;28;20484;-64
2021/05/13 02:39:09;;;;;;;29.85;19.48;;;;;;;;;;5071616;28;20024;-64
2021/05/13 02:41:35;;;;;;;30.20;17.98;;;;;;;;;;5073234;28;20028;-65
2021/05/13 02:44:01;;;;;;;31.38;19.13;;;;;;;;;;5073438;28;20020;-64
2021/05/13 02:46:30;;;;;;;35.58;24.40;;;;;;;;;;5073492;28;20487;-65
2021/05/13 02:48:56;;;;;;;32.13;21.23;;;;;;;;;;5071544;28;20029;-65
2021/05/13 02:51:22;;;;;;;35.78;24.40;;;;;;;;;;5072269;28;20469;-65
2021/05/13 02:53:48;;;;;;;31.65;20.38;;;;;;;;;;5073071;28;20024;-64
2021/05/13 02:56:14;;;;;;;37.92;24.95;;;;;;;;;;5071280;28;20127;-64
2021/05/13 02:58:40;;;;;;;36.75;22.60;;;;;;;;;;5072174;28;20044;-64
2021/05/13 03:01:24;;;;;;;32.00;18.98;;;;;;;;;;5072764;28;20025;-64
2021/05/13 03:03:50;;;;;;;32.55;19.75;;;;;;;;;;5072558;28;20492;-64
2021/05/13 03:06:17;;;;;;;34.58;22.08;;;;;;;;;;5071208;28;20107;-63
2021/05/13 03:08:43;;;;;;;32.80;22.23;;;;;;;;;;5071967;28;20027;-65
2021/05/13 03:11:09;;;;;;;30.38;20.83;;;;;;;;;;5071476;28;20542;-65
2021/05/13 03:13:36;;;;;;;30.48;20.08;;;;;;;;;;5072376;28;20377;-65
2021/05/13 03:16:03;;;;;;;33.10;21.38;;;;;;;;;;5072343;28;20033;-65
2021/05/13 03:18:33;;;;;;;28.15;18.15;;;;;;;;;;5072843;28;20089;-64
2021/05/13 03:23:38;;;;;;;28.75;18.45;;;;;;;;;;5073000;28;20032;-64
2021/05/13 03:26:05;;;;;;;32.05;19.85;;;;;;;;;;5072682;28;20070;-65
2021/05/13 03:28:31;;;;;;;32.25;19.05;;;;;;;;;;5071463;28;20017;-64
2021/05/13 03:30:57;;;;;;;36.65;22.80;;;;;;;;;;5072103;28;20013;-64
2021/05/13 03:33:23;;;;;;;32.85;21.23;;;;;;;;;;5071309;28;20392;-64
2021/05/13 03:35:49;;;;;;;32.58;17.92;;;;;;;;;;5071523;28;20025;-64
2021/05/13 03:38:15;;;;;;;37.15;23.13;;;;;;;;;;5072579;28;20047;-65
2021/05/13 03:40:41;;;;;;;33.40;20.58;;;;;;;;;;5070735;28;20028;-65
2021/05/13 03:43:07;;;;;;;28.98;17.88;;;;;;;;;;5071579;28;20077;-65
2021/05/13 03:45:34;;;;;;;30.40;18.77;;;;;;;;;;5071292;28;20074;-65
2021/05/13 03:48:02;;;;;;;30.25;19.35;;;;;;;;;;5072365;28;20040;-65
2021/05/13 03:50:29;;;;;;;33.17;18.63;;;;;;;;;;5070582;28;20023;-64
2021/05/13 03:52:55;;;;;;;32.90;19.42;;;;;;;;;;5071117;28;20559;-65
2021/05/13 03:55:21;;;;;;;39.25;23.17;;;;;;;;;;5071347;28;20021;-65
2021/05/13 03:57:47;;;;;;;40.05;21.58;;;;;;;;;;5070904;28;20051;-64
2021/05/13 04:00:14;;;;;;;37.42;23.38;;;;;;;;;;5071537;28;20056;-65
2021/05/13 04:02:41;;;;;;;35.75;21.75;;;;;;;;;;5071162;28;20397;-65
2021/05/13 04:05:07;;;;;;;35.08;20.77;;;;;;;;;;5071131;28;20112;-64
2021/05/13 04:07:35;;;;;;;34.03;21.33;;;;;;;;;;5070890;28;20547;-65
2021/05/13 04:10:05;;;;;;;31.90;18.13;;;;;;;;;;5070732;28;20067;-64
2021/05/13 04:12:31;;;;;;;31.67;18.90;;;;;;;;;;5070964;28;20012;-64
2021/05/13 04:14:59;;;;;;;31.13;18.88;;;;;;;;;;5071146;28;20047;-64
2021/05/13 04:17:25;;;;;;;30.17;17.63;;;;;;;;;;5072469;28;20467;-65
2021/05/13 04:19:51;;;;;;;28.38;17.55;;;;;;;;;;5069987;28;20059;-64
2021/05/13 04:22:17;;;;;;;30.42;17.45;;;;;;;;;;5071157;28;20064;-65
2021/05/13 04:24:43;;;;;;;31.92;18.02;;;;;;;;;;5070914;28;20044;-63
2021/05/13 04:27:09;;;;;;;33.38;18.48;;;;;;;;;;5072689;28;20017;-65
2021/05/13 04:29:35;;;;;;;29.42;17.77;;;;;;;;;;5071977;28;20029;-64
2021/05/13 04:32:02;;;;;;;28.65;16.50;;;;;;;;;;5072427;28;20021;-64
2021/05/13 04:34:28;;;;;;;30.73;16.77;;;;;;;;;;5071824;28;20048;-64
2021/05/13 04:36:54;;;;;;;29.20;16.30;;;;;;;;;;5070829;28;20032;-65
2021/05/13 04:39:20;;;;;;;26.92;16.70;;;;;;;;;;5071642;28;20024;-64
2021/05/13 04:41:46;;;;;;;30.98;18.13;;;;;;;;;;5071180;28;20028;-64
2021/05/13 04:44:12;;;;;;;28.42;16.77;;;;;;;;;;5072813;28;20126;-65
2021/05/13 04:46:38;;;;;;;29.08;17.48;;;;;;;;;;5071116;28;20033;-64
2021/05/13 04:51:34;;;;;;;26.70;15.43;;;;;;;;;;5072047;28;20028;-65
2021/05/13 04:54:00;;;;;;;22.88;13.65;;;;;;;;;;5071776;28;20050;-64
2021/05/13 04:56:27;;;;;;;24.50;13.13;;;;;;;;;;5071570;28;20029;-65
2021/05/13 04:58:53;;;;;;;22.30;12.50;;;;;;;;;;5069560;28;20190;-65
2021/05/13 05:01:19;;;;;;;22.65;12.90;;;;;;;;;;5071652;28;20461;-65
2021/05/13 05:03:45;;;;;;;25.88;12.55;;;;;;;;;;5069707;28;20389;-65
2021/05/13 05:06:11;;;;;;;23.77;11.85;;;;;;;;;;5070965;28;20035;-64
2021/05/13 05:08:38;;;;;;;20.88;11.80;;;;;;;;;;5069236;28;20111;-63
2021/05/13 05:11:05;;;;;;;24.30;12.38;;;;;;;;;;5069601;28;20473;-65
2021/05/13 05:13:31;;;;;;;27.00;13.07;;;;;;;;;;5071815;28;20094;-64
2021/05/13 05:16:00;;;;;;;23.73;12.77;;;;;;;;;;5070044;28;20025;-64
2021/05/13 05:18:26;;;;;;;22.20;12.68;;;;;;;;;;5071274;28;20058;-64
2021/05/13 05:20:52;;;;;;;22.95;12.77;;;;;;;;;;5073618;28;20399;-64
2021/05/13 05:23:19;;;;;;;21.35;11.60;;;;;;;;;;5073163;28;20378;-64
2021/05/13 05:25:45;;;;;;;21.42;11.93;;;;;;;;;;5073386;28;20040;-64
2021/05/13 05:28:11;;;;;;;22.13;11.77;;;;;;;;;;5074187;28;20457;-65
2021/05/13 05:30:40;;;;;;;22.58;12.43;;;;;;;;;;5072925;28;20489;-65
2021/05/13 05:33:07;;;;;;;22.77;11.30;;;;;;;;;;5073405;28;20024;-65
2021/05/13 05:35:37;;;;;;;24.08;12.07;;;;;;;;;;5074854;28;20028;-66
2021/05/13 05:38:04;;;;;;;23.75;12.38;;;;;;;;;;5073329;28;20024;-65
2021/05/13 05:40:30;;;;;;;22.63;11.88;;;;;;;;;;5072818;28;20031;-65
2021/05/13 05:42:56;;;;;;;22.40;12.65;;;;;;;;;;5073297;28;20024;-65
2021/05/13 05:45:23;;;;;;;21.50;11.68;;;;;;;;;;5073353;28;20057;-64
2021/05/13 05:47:50;;;;;;;23.33;11.95;;;;;;;;;;5073287;28;20449;-65
2021/05/13 05:50:16;;;;;;;22.58;11.68;;;;;;;;;;5072623;28;20024;-65
2021/05/13 05:52:42;;;;;;;22.85;11.70;;;;;;;;;;5073267;28;20070;-65
2021/05/13 05:55:08;;;;;;;23.08;12.25;;;;;;;;;;5074393;28;20074;-65
2021/05/13 05:57:35;;;;;;;24.40;12.65;;;;;;;;;;5073178;28;20031;-65
2021/05/13 06:00:02;;;;;;;21.30;12.18;;;;;;;;;;5072847;28;20017;-65
2021/05/13 06:02:28;;;;;;;22.17;12.25;;;;;;;;;;5074308;28;20016;-65
2021/05/13 06:04:54;;;;;;;22.92;12.77;;;;;;;;;;5073302;28;20067;-65
2021/05/13 06:07:21;;;;;;;23.52;13.95;;;;;;;;;;5074141;28;20536;-65
2021/05/13 06:09:47;;;;;;;23.88;13.73;;;;;;;;;;5073380;28;20099;-66
2021/05/13 06:12:13;;;;;;;23.30;13.27;;;;;;;;;;5074079;28;20020;-65
2021/05/13 06:14:39;;;;;;;23.50;13.25;;;;;;;;;;5071018;28;20567;-64
2021/05/13 06:17:06;;;;;;;27.67;14.77;;;;;;;;;;5073785;28;20029;-65
2021/05/13 06:19:32;;;;;;;24.95;15.38;;;;;;;;;;5073957;28;20435;-64
2021/05/13 06:21:58;;;;;;;29.38;18.00;;;;;;;;;;5077095;28;20085;-65
2021/05/13 06:24:24;;;;;;;27.52;18.42;;;;;;;;;;5093715;28;20027;-64
2021/05/13 06:27:00;;;;;;;28.23;19.25;;;;;;;;;;5087433;28;20028;-64
2021/05/13 06:29:28;;;;;;;29.48;19.17;;;;;;;;;;5071507;28;20017;-63
2021/05/13 06:31:54;;;;;;;28.50;18.83;;;;;;;;;;5072346;28;20029;-65
2021/05/13 06:34:20;;;;;;;27.38;18.65;;;;;;;;;;5073615;28;20476;-64
2021/05/13 06:36:46;;;;;;;29.17;19.52;;;;;;;;;;5090543;28;20035;-64
2021/05/13 06:39:12;;;;;;;30.52;19.77;;;;;;;;;;5093035;28;20020;-64
2021/05/13 06:41:41;;;;;;;34.15;25.35;;;;;;;;;;5092410;28;20130;-64
2021/05/13 06:44:07;;;;;;;29.30;19.17;;;;;;;;;;5093597;28;20027;-64
2021/05/13 06:46:33;;;;;;;27.38;18.65;;;;;;;;;;5092129;28;20515;-64
2021/05/13 06:48:59;;;;;;;29.50;18.45;;;;;;;;;;5091475;28;20020;-64
2021/05/13 06:51:25;;;;;;;29.23;19.50;;;;;;;;;;5092181;28;20039;-62
2021/05/13 06:53:51;;;;;;;29.77;18.92;;;;;;;;;;5074431;28;20020;-65
2021/05/13 06:56:18;;;;;;;30.05;19.27;;;;;;;;;;5071795;28;20451;-64
2021/05/13 06:58:44;;;;;;;28.63;18.80;;;;;;;;;;5072247;28;20025;-65
2021/05/13 07:01:10;;;;;;;29.10;18.60;;;;;;;;;;5071736;28;20028;-64
2021/05/13 07:03:36;;;;;;;28.63;19.33;;;;;;;;;;5073024;28;20082;-64
2021/05/13 07:06:02;;;;;;;29.73;17.92;;;;;;;;;;5071480;28;20028;-64
2021/05/13 07:08:28;;;;;;;27.65;17.42;;;;;;;;;;5072711;28;20091;-64
2021/05/13 07:10:54;;;;;;;26.95;17.45;;;;;;;;;;5071010;28;20025;-65
2021/05/13 07:13:21;;;;;;;33.17;23.20;;;;;;;;;;5071529;28;20056;-64
2021/05/13 07:15:47;;;;;;;28.58;18.63;;;;;;;;;;5072559;28;20028;-64
2021/05/13 07:18:14;;;;;;;25.83;17.10;;;;;;;;;;5095425;22;20024;-61
2021/05/13 07:20:40;;;;;;;25.65;17.85;;;;;;;;;;5050100;28;20025;-64
2021/05/13 07:23:06;;;;;;;27.33;18.40;;;;;;;;;;5052406;28;20036;-59
2021/05/13 07:25:33;;;;;;;28.05;18.58;;;;;;;;;;5051391;28;20021;-63
2021/05/13 07:28:00;;;;;;;24.77;16.75;;;;;;;;;;5051545;28;20433;-63
2021/05/13 07:30:26;;;;;;;27.67;17.63;;;;;;;;;;5050354;28;20422;-63
2021/05/13 07:32:52;;;;;;;27.80;16.88;;;;;;;;;;5052414;28;20029;-64
2021/05/13 07:35:18;;;;;;;25.75;16.55;;;;;;;;;;5051211;28;20025;-63
2021/05/13 07:37:45;;;;;;;29.10;17.52;;;;;;;;;;5052229;28;20028;-63
2021/05/13 07:40:11;;;;;;;28.08;17.00;;;;;;;;;;5051597;28;20033;-64
2021/05/13 07:42:37;;;;;;;24.85;15.95;;;;;;;;;;5050059;28;20024;-64
2021/05/13 07:45:05;;;;;;;26.20;16.60;;;;;;;;;;5050953;28;20063;-60
2021/05/13 07:47:36;;;;;;;24.53;16.17;;;;;;;;;;5050704;28;20595;-60
2021/05/13 07:50:03;;;;;;;27.25;17.80;;;;;;;;;;5051381;28;20032;-56
2021/05/13 07:52:29;;;;;;;23.35;15.48;;;;;;;;;;5050369;28;20021;-61
2021/05/13 07:54:57;;;;;;;24.52;15.55;;;;;;;;;;5031091;28;20033;-56
2021/05/13 07:57:23;;;;;;;26.92;14.93;;;;;;;;;;5032064;28;20486;-58
2021/05/13 07:59:49;;;;;;;24.30;15.75;;;;;;;;;;5031224;28;20044;-54
2021/05/13 08:02:15;;;;;;;23.42;15.55;;;;;;;;;;5031972;28;20410;-56
2021/05/13 08:04:41;;;;;;;24.48;16.63;;;;;;;;;;5032013;28;20032;-52
2021/05/13 08:07:07;;;;;;;26.23;15.32;;;;;;;;;;5031874;28;20076;-57
2021/05/13 08:09:33;;;;;;;22.70;14.35;;;;;;;;;;5046588;28;20075;-56
2021/05/13 08:11:59;;;;;;;22.10;14.48;;;;;;;;;;5032452;28;20037;-56
2021/05/13 08:14:25;;;;;;;25.40;17.20;;;;;;;;;;5046805;28;20116;-58
2021/05/13 08:16:51;;;;;;;22.77;14.73;;;;;;;;;;5046865;28;20021;-55
2021/05/13 08:19:17;;;;;;;25.50;16.27;;;;;;;;;;5045784;28;20030;-54
2021/05/13 08:21:42;;;;;;;27.20;15.75;;;;;;;;;;5048952;28;20036;-54
2021/05/13 08:24:08;;;;;;;26.02;16.27;;;;;;;;;;5051175;28;20098;-54
2021/05/13 08:26:34;;;;;;;25.20;17.85;;;;;;;;;;5051467;28;20021;-57
2021/05/13 08:29:01;;;;;;;25.92;17.45;;;;;;;;;;5041262;28;20036;-53
2021/05/13 08:31:26;;;;;;;43.08;18.33;;;19.50;98.80;;;;;;5030849;28;20386;-51
2021/05/13 08:33:52;;;;;;;27.38;16.67;;;17.00;99.90;;;;;;5018747;28;20024;-56
2021/05/13 08:36:18;;;;;;;25.42;16.60;;;16.90;99.90;;;;;;5021844;28;20416;-56
2021/05/13 08:38:43;;;;;;;23.65;15.52;;;16.90;99.90;;;;;;5020876;28;20026;-57
2021/05/13 08:41:10;;;;;;;25.70;16.08;;;;;;;;;;5019994;28;20018;-55
2021/05/13 08:43:36;;;;;;;24.50;16.05;;;;;;;;;;5030904;28;20076;-57
2021/05/13 08:46:03;;;;;;;25.00;15.38;;;;;;;;;;5029619;28;20064;-52
2021/05/13 08:48:29;;;;;;;31.10;15.80;;;;;;;;;;5030554;28;20026;-53
2021/05/13 08:50:56;;;;;;;24.23;15.95;;;;;;;;;;5011022;28;20029;-50
2021/05/13 08:53:22;;;;;;;28.02;15.93;;;;;;;;;;5011762;28;20386;-55
2021/05/13 08:55:48;;;;;;;23.70;15.55;;;;;;;;;;5015164;28;20018;-55
2021/05/13 08:58:14;;;;;;;24.77;15.95;;;;;;;;;;5014804;28;20025;-54
2021/05/13 09:00:50;;;;;;;23.35;15.95;;;;;;;;;;5014711;28;20037;-52
2021/05/13 09:03:29;;;;;;;21.55;15.38;;;;;;;;;;5013877;28;20026;-54
2021/05/13 09:05:55;;;;;;;26.85;17.05;;;;;;;;;;5030829;28;20028;-56
2021/05/13 09:08:22;;;;;;;24.35;16.25;;;;;;;;;;5030482;28;20500;-64
2021/05/13 09:10:50;;;;;;;25.05;15.30;;;;;;;;;;5032036;28;20056;-62
2021/05/13 09:13:26;;;;;;;22.55;14.80;;;;;;;;;;5033344;28;20025;-62
2021/05/13 09:15:52;;;;;;;22.17;15.43;;;;;;;;;;5016543;28;20168;-63
2021/05/13 09:18:29;;;;;;;23.65;17.67;;;;;;;;;;5014449;28;20022;-63
2021/05/13 09:21:02;;;;;;;25.48;17.05;;;;;;;;;;5035761;28;20036;-64
2021/05/13 09:23:29;;;;;;;26.13;17.02;;;;;;;;;;5054766;28;20021;-63
2021/05/13 09:26:08;;;;;;;26.50;19.73;;;;;;;;;;5054812;28;20500;-63
2021/05/13 09:28:34;;;;;;;21.45;15.88;;;;;;;;;;5054478;28;20053;-63
2021/05/13 09:31:00;;;;;;;24.42;16.55;;;;;;;;;;5054050;28;20025;-62
2021/05/13 09:33:27;;;;;;;22.73;16.85;;;;;;;;;;5054592;28;20033;-63
2021/05/13 09:35:54;;;;;;;23.88;17.60;;;;;;;;;;5054373;28;20374;-64
2021/05/13 09:38:31;;;;;;;26.13;17.77;;;;;;;;;;5054391;28;20037;-63
2021/05/13 09:40:57;;;;;;;22.90;17.83;;;;;;;;;;5038263;28;20036;-61
2021/05/13 09:43:24;;;;;;;23.75;16.70;;;;;;;;;;5034780;28;20053;-63
2021/05/13 09:45:54;;;;;;;24.10;17.45;;;17.00;99.90;;;;;;5035287;28;20026;-62
2021/05/13 09:48:39;;;;;;;26.30;18.17;;;;;;;;;;5034746;28;20386;-58
2021/05/13 09:51:24;;;;;;;24.52;17.80;;;;;;;;;;5034148;28;20018;-60
2021/05/13 09:53:51;;;;;;;25.65;17.58;;;;;;;;;;5034470;28;20049;-59
2021/05/13 09:56:25;;;;;;;22.85;16.92;;;;;;;;;;5032323;28;20091;-61
2021/05/13 09:58:51;;;;;;;23.83;17.20;;;;;;;;;;5030417;28;20037;-61
2021/05/13 10:01:17;;;;;;;24.05;17.05;;;19.30;99.90;;;;;;5034119;28;20021;-63
2021/05/13 10:03:47;;;;;;;26.95;18.30;;;18.30;99.90;;;;;;5034128;28;20401;-61
2021/05/13 10:06:13;;;;;;;26.70;18.83;;;18.10;99.90;;;;;;5032048;28;20365;-63
2021/05/13 10:08:42;;;;;;;24.65;17.77;;;;;;;;;;5032104;28;20463;-58
2021/05/13 10:11:08;;;;;;;24.90;18.10;;;;;;;;;;5032800;28;20025;-61
2021/05/13 10:13:34;;;;;;;27.00;17.48;;;;;;;;;;5034633;28;20108;-62
2021/05/13 10:16:01;;;;;;;26.42;17.63;;;;;;;;;;5034001;28;20108;-61
2021/05/13 10:18:32;;;;;;;26.38;17.40;;;;;;;;;;5033674;28;20216;-61
2021/05/13 10:21:04;;;;;;;31.05;19.50;;;;;;;;;;5044104;28;20108;-60
2021/05/13 10:23:31;;;;;;;27.10;18.08;;;;;;;;;;5053823;28;20025;-58
2021/05/13 10:25:57;;;;;;;28.30;19.52;;;;;;;;;;5053501;28;20028;-54
2021/05/13 10:28:31;;;;;;;28.60;19.05;;;;;;;;;;5053393;28;20029;-60
2021/05/13 10:31:02;;;;;;;28.45;19.23;;;;;;;;;;5052810;28;20083;-56
2021/05/13 10:33:42;;;;;;;29.08;18.20;;;;;;;;;;5053471;28;20024;-60
2021/05/13 10:36:08;;;;;;;27.50;19.75;;;;;;;;;;5052493;28;20394;-63
2021/05/13 10:38:46;;;;;;;27.33;17.60;;;;;;;;;;5051968;28;20036;-61
2021/05/13 10:41:33;;;;;;;26.85;17.65;;;;;;;;;;5051744;28;20395;-58
2021/05/13 10:44:20;;;;;;;29.67;18.27;;;;;;;;;;5053139;28;20025;-61
2021/05/13 10:46:52;;;;;;;31.25;19.40;;;;;;;;;;5039566;28;20405;-63
2021/05/13 10:49:27;;;;;;;28.63;19.13;;;;;;;;;;5050841;28;20032;-59
2021/05/13 10:52:15;;;;;;;29.10;18.65;;;18.00;99.90;;;;;;5043209;28;20033;-61
2021/05/13 10:54:46;;;;;;;27.25;19.55;;;17.40;99.90;;;;;;5019620;28;20390;-63
2021/05/13 10:57:17;;;;;;;25.15;18.05;;;17.70;99.90;;;;;;5021386;28;20552;-60
2021/05/13 11:00:08;;;;;;;27.50;19.15;;;17.70;99.90;;;;;;4671199;28;10000142;-59
2021/05/13 11:02:41;;;;;;;25.75;18.63;;;18.00;99.90;;;;;;5026729;28;20056;-58
2021/05/13 11:05:39;;;;;;;26.63;17.05;;;18.20;99.90;;;;;;5026105;28;20037;-64
2021/05/13 11:08:07;;;;;;;27.88;18.50;;;18.40;99.90;;;;;;5026397;28;20495;-62
2021/05/13 11:11:02;;;;;;;25.45;18.27;;;;;;;;;;5022428;28;20594;-62
2021/05/13 11:13:41;;;;;;;25.35;17.92;;;;;;;;;;5022238;28;20115;-60
2021/05/13 11:16:07;;;;;;;24.23;16.08;;;;;;;;;;5042834;28;20037;-62
2021/05/13 11:18:33;;;;;;;23.15;16.15;;;;;;;;;;5016391;28;20033;-58
2021/05/13 11:20:59;;;;;;;23.20;17.10;;;;;;;;;;5021713;28;20042;-60
2021/05/13 11:23:27;;;;;;;25.65;17.52;;;;;;;;;;5009742;28;20022;-61
2021/05/13 11:25:57;;;;;;;24.83;18.63;;;;;;;;;;5020004;28;20033;-61
2021/05/13 11:28:36;;;;;;;23.67;17.20;;;;;;;;;;5026124;28;20272;-60
2021/05/13 11:31:08;;;;;;;22.27;17.35;;;;;;;;;;5027859;28;20474;-61
2021/05/13 11:33:52;;;;;;;21.33;16.33;;;18.60;99.90;;;;;;5026553;28;20041;-62
2021/05/13 11:36:37;;;;;;;20.75;16.40;;;;;;;;;;5021601;28;20614;-62
2021/05/13 11:39:09;;;;;;;22.05;16.55;;;;;;;;;;5043619;28;20029;-59
2021/05/13 11:41:35;;;;;;;20.65;16.77;;;;;;;;;;5020980;28;20086;-61
2021/05/13 11:44:01;;;;;;;22.63;16.70;;;;;;;;;;5021416;28;20108;-62
2021/05/13 11:46:27;;;;;;;21.63;17.17;;;;;;;;;;5021725;28;20096;-62
2021/05/13 11:48:54;;;;;;;20.10;15.73;;;;;;;;;;5028899;28;20018;-59
2021/05/13 11:51:24;;;;;;;19.20;15.32;;;;;;;;;;5031949;28;20032;-61
2021/05/13 11:53:51;;;;;;;19.00;15.10;;;;;;;;;;5038541;28;20029;-61
2021/05/13 11:56:17;;;;;;;19.48;14.15;;;26.10;93.30;;;;;;5031541;28;20033;-55
2021/05/13 11:58:45;;;;;;;21.05;15.27;;;28.90;68.90;;;;;;5031135;28;20032;-63
2021/05/13 12:01:26;;;;;;;19.92;14.60;;;29.60;66.90;;;;;;5021372;28;20374;-63
2021/05/13 12:04:02;;;;;;;19.63;15.48;;;;;;;;;;5028996;28;20121;-64
2021/05/13 12:06:38;;;;;;;19.30;15.15;;;30.40;66.80;;;;;;5029792;28;20028;-63
2021/05/13 12:09:04;;;;;;;19.77;15.45;;;;;;;;;;5028515;28;20017;-62
2021/05/13 12:11:30;;;;;;;18.90;14.10;;;29.20;60.60;;;;;;5038364;28;20032;-63
2021/05/13 12:13:58;;;;;;;17.75;13.73;;;;;;;;;;5031249;28;20033;-62
2021/05/13 12:16:26;;;;;;;19.67;14.30;;;30.00;59.90;;;;;;5020910;28;20018;-60
2021/05/13 12:18:57;;;;;;;19.17;14.45;;;;;;;;;;5019213;28;20033;-60
2021/05/13 12:21:23;;;;;;;19.27;15.77;;;;;;;;;;5031070;28;20087;-62
2021/05/13 12:23:50;;;;;;;21.30;15.52;;;;;;;;;;5021402;28;20385;-60
2021/05/13 12:26:21;;;;;;;21.02;15.40;;;;;;;;;;4670787;28;10000106;-67
2021/05/13 12:28:47;;;;;;;20.02;15.07;;;;;;;;;;5008642;28;20057;-62
2021/05/13 12:31:24;;;;;;;24.27;15.25;;;;;;;;;;5011635;28;20029;-62
2021/05/13 12:33:49;;;;;;;22.35;15.55;;;;;;;;;;5014985;28;20125;-59
2021/05/13 12:36:15;;;;;;;20.88;15.23;;;;;;;;;;5012945;28;20101;-61
2021/05/13 12:38:43;;;;;;;19.98;14.70;;;;;;;;;;5014131;28;20037;-61
2021/05/13 12:41:10;;;;;;;21.33;14.88;;;;;;;;;;5021960;28;20028;-62
2021/05/13 12:43:37;;;;;;;20.07;14.37;;;;;;;;;;5023231;28;20385;-61
2021/05/13 12:46:16;;;;;;;21.20;14.55;;;;;;;;;;5021044;28;20034;-60
2021/05/13 12:48:42;;;;;;;20.63;14.20;;;;;;;;;;5019859;28;20484;-62
2021/05/13 12:51:09;;;;;;;20.40;13.90;;;;;;;;;;5017140;28;20033;-58
2021/05/13 12:53:35;;;;;;;20.90;15.20;;;;;;;;;;5012331;28;20026;-62
2021/05/13 12:56:01;;;;;;;19.45;14.27;;;;;;;;;;5012405;28;20030;-62
2021/05/13 12:58:29;;;;;;;20.45;13.98;;;;;;;;;;5017176;28;20091;-62
2021/05/13 13:01:02;;;;;;;19.70;14.20;;;;;;;;;;5021505;28;20026;-61
2021/05/13 13:03:30;;;;;;;20.85;15.07;;;;;;;;;;5029644;28;20760;-62
2021/05/13 13:06:09;;;;;;;21.90;14.23;;;;;;;;;;5032252;28;20029;-62
2021/05/13 13:08:39;;;;;;;22.33;15.75;;;;;;;;;;5033449;28;20026;-62
2021/05/13 13:11:05;;;;;;;20.60;15.55;;;;;;;;;;5035180;28;20029;-62
2021/05/13 13:13:46;;;;;;;19.95;14.90;;;;;;;;;;4678383;28;10000032;-60
2021/05/13 13:16:21;;;;;;;21.63;14.35;;;;;;;;;;5030196;28;20100;-60
2021/05/13 13:21:17;;;;;;;21.33;15.02;;;;;;;;;;5068623;28;20048;-61
2021/05/13 13:23:45;;;;;;;21.65;14.38;;;;;;;;;;5073410;28;20396;-60
2021/05/13 13:26:12;;;;;;;20.70;15.77;;;;;;;;;;5072094;28;20052;-55
2021/05/13 13:28:41;;;;;;;23.27;16.95;;;;;;;;;;5074500;28;20082;-57
2021/05/13 13:31:14;;;;;;;21.92;15.40;;;;;;;;;;5053019;28;20021;-58
2021/05/13 13:33:41;;;;;;;21.20;15.82;;;;;;;;;;5053831;28;20420;-58
2021/05/13 13:36:07;;;;;;;21.23;15.40;;;;;;;;;;5053782;28;20091;-55
2021/05/13 13:38:33;;;;;;;20.80;15.25;;;;;;;;;;5053095;28;20025;-57
2021/05/13 13:41:01;;;;;;;23.52;15.65;;;;;;;;;;5053573;28;20031;-56
2021/05/13 13:43:28;;;;;;;25.80;15.77;;;;;;;;;;5054508;28;20492;-57
2021/05/13 13:45:54;;;;;;;21.67;15.70;;;;;;;;;;5054496;28;20370;-57
2021/05/13 13:48:21;;;;;;;23.30;15.48;;;;;;;;;;5053426;28;20108;-58
2021/05/13 13:50:51;;;;;;;23.63;15.57;;;;;;;;;;5053932;28;20024;-55
2021/05/13 13:53:18;;;;;;;21.00;14.65;;;;;;;;;;5053456;28;20165;-57
2021/05/13 13:55:46;;;;;;;21.38;15.02;;;;;;;;;;4702282;28;10000231;-57
2021/05/13 13:58:12;;;;;;;22.80;15.75;;;;;;;;;;5055163;28;20515;-55
2021/05/13 14:00:38;;;;;;;20.88;14.65;;;;;;;;;;5065184;28;20028;-56
2021/05/13 14:03:04;;;;;;;22.90;14.65;;;;;;;;;;5071074;28;20439;-53
2021/05/13 14:05:30;;;;;;;23.20;15.55;;;;;;;;;;5061714;28;20025;-59
2021/05/13 14:07:56;;;;;;;22.40;15.07;;;;;;;;;;5050718;28;20053;-61
2021/05/13 14:10:25;;;;;;;23.27;14.82;;;;;;;;;;5050448;28;20040;-61
2021/05/13 14:12:52;;;;;;;21.20;14.65;;;;;;;;;;5050332;28;20436;-59
2021/05/13 14:15:18;;;;;;;22.15;14.27;;;;;;;;;;5050412;28;20029;-57
2021/05/13 14:17:44;;;;;;;20.88;13.52;;;;;;;;;;5058546;28;20016;-58
2021/05/13 14:20:12;;;;;;;19.60;14.02;;;;;;;;;;5058509;28;20090;-56
2021/05/13 14:22:38;;;;;;;20.85;13.80;;;;;;;;;;5056885;28;20045;-57
2021/05/13 14:25:04;;;;;;;22.27;14.45;;;;;;;;;;5058740;28;20474;-58